Terminal Aerodrome Forecast
Issued by NWS

Home | Current Version | Previous Version | Text Only | Print | Product List | Glossary On
Versions: 1 2 3 4 5 6 7 8 9 10 11 12 13 14 15 16 17 18 19 20 21
627
FTUS43 KGRB 161739
TAFCWA
TAF
KCWA 161739Z 1618/1718 13010KT P6SM SCT035 BKN100
     FM170300 12011G17KT P6SM -SHRA SCT025 OVC040
      TEMPO 1704/1705 2SM TSRA BR OVC015CB
     FM170500 15011G18KT 4SM -SHRA BR BKN006 OVC012 WS015/16040KT
      TEMPO 1705/1708 2SM TSRA BR OVC012CB
     FM171600 20009KT 4SM -SHRA BR OVC015
      TEMPO 1716/1718 4SM TSRA BKN015CB=

USA.gov is the U.S. government's official web portal to all federal, state and local government web resources and services.